PWSweather.com
Personal Weather Stations
Station Observations
IVENETOL9
Brugine, BrugineIT 35020

BrugineBrugineIT 35020

Lat: 45.2975, Lon: 11.9962777

Elevation: 19

Station Type: Davis Vantage Pro2 Plus

http://www.meteobrugine.it/

Latest ConditionsUpdated 10:31:03 PM GMT+01:01 Wednesday, May 27, 2015
Currently Today's Max Today's Min Today's Average
Temperature 58.0°F14.4°C 71.3°F21.8°C 57.8°F14.3°C 64.8°F18.2°C
Dew Point 56.0°F13.3°C 61.0°F16.1°C 48.4°F9.1°C 55.2°F12.9°C
Winds Calm Calm 1.3 mph SSW2.1 kmh SSW - 0.0 mph 0.0 kmh
Wind Gusts -- 5.0 mph8.0 kmh - -
Humidity 93% 99% 49% 73%
Pressure 30.06 in1017.9 mb 30.06 in1017.9 mb 29.91 in1012.9 mb -
Precipitation - 0.29 in7.4 mm - -
Hour Temp Dew Point Humidity Winds Wind Gusts Pressure Precip Precip Rate Daily Precip Total
10:31 PM 58.0°F14.4°C 56.0°F13.3°C 93% Calm Calm -- 30.06 in1017.9 mb - 0.00 in0.0 mm 0.29 in7.4 mm
10:16 PM 58.9°F14.9°C 56.0°F13.3°C 90% Calm Calm -- 30.06 in1017.9 mb - 0.00 in0.0 mm 0.29 in7.4 mm
10:01 PM 59.5°F15.3°C 56.3°F13.5°C 89% Calm Calm -- 30.06 in1017.9 mb - 0.00 in0.0 mm 0.29 in7.4 mm
09:46 PM 59.2°F15.1°C 56.5°F13.6°C 91% Calm Calm -- 30.05 in1017.6 mb - 0.00 in0.0 mm 0.29 in7.4 mm
09:31 PM 58.7°F14.8°C 56.1°F13.4°C 91% Calm Calm -- 30.05 in1017.6 mb - 0.00 in0.0 mm 0.29 in7.4 mm
09:15 PM 59.5°F15.3°C 54.3°F12.4°C 83% Calm Calm -- 30.05 in1017.6 mb - 0.00 in0.0 mm 0.29 in7.4 mm
09:01 PM 60.0°F15.6°C 52.1°F11.2°C 75% Calm Calm -- 30.05 in1017.6 mb - 0.00 in0.0 mm 0.29 in7.4 mm
08:46 PM 60.9°F16.1°C 52.1°F11.2°C 73% Calm Calm -- 30.04 in1017.3 mb - 0.00 in0.0 mm 0.29 in7.4 mm
08:30 PM 62.1°F16.7°C 52.6°F11.4°C 71% Calm Calm -- 30.04 in1017.3 mb - 0.00 in0.0 mm 0.29 in7.4 mm
08:15 PM 62.3°F16.8°C 52.0°F11.1°C 69% Calm Calm -- 30.03 in1016.9 mb - 0.00 in0.0 mm 0.29 in7.4 mm
08:00 PM 62.0°F16.7°C 53.2°F11.8°C 73% Calm Calm -- 30.02 in1016.6 mb - 0.00 in0.0 mm 0.29 in7.4 mm
07:45 PM 63.4°F17.4°C 53.0°F11.7°C 69% Calm Calm -- 30.02 in1016.6 mb - 0.00 in0.0 mm 0.29 in7.4 mm
07:30 PM 65.2°F18.4°C 50.5°F10.3°C 59% Calm Calm -- 30.02 in1016.6 mb - 0.00 in0.0 mm 0.29 in7.4 mm
07:15 PM 65.4°F18.6°C 50.3°F10.2°C 58% Calm Calm -- 30.01 in1016.3 mb - 0.00 in0.0 mm 0.29 in7.4 mm
07:00 PM 65.8°F18.8°C 49.7°F9.8°C 56% Calm Calm -- 30.00 in1015.9 mb - 0.00 in0.0 mm 0.29 in7.4 mm
06:45 PM 66.0°F18.9°C 48.9°F9.4°C 54% Calm Calm -- 30.00 in1015.9 mb - 0.00 in0.0 mm 0.29 in7.4 mm
06:31 PM 66.7°F19.3°C 49.0°F9.4°C 53% Calm Calm 1.0 mph1.6 kmh 29.99 in1015.6 mb - 0.00 in0.0 mm 0.29 in7.4 mm
06:15 PM 67.2°F19.6°C 48.4°F9.1°C 51% 0.3 mph NE0.5 kmh NE 3.0 mph4.8 kmh 29.99 in1015.6 mb - 0.00 in0.0 mm 0.29 in7.4 mm
06:01 PM 68.5°F20.3°C 48.6°F9.2°C 49% 1.0 mph ENE1.6 kmh ENE 5.0 mph8.0 kmh 29.99 in1015.6 mb - 0.00 in0.0 mm 0.29 in7.4 mm
05:46 PM 68.7°F20.4°C 51.4°F10.8°C 54% Calm Calm 1.0 mph1.6 kmh 29.98 in1015.2 mb - 0.00 in0.0 mm 0.29 in7.4 mm
05:31 PM 66.9°F19.4°C 53.9°F12.2°C 63% Calm Calm -- 29.98 in1015.2 mb - 0.00 in0.0 mm 0.29 in7.4 mm
05:15 PM 67.8°F19.9°C 52.4°F11.3°C 58% Calm Calm -- 29.98 in1015.2 mb - 0.00 in0.0 mm 0.29 in7.4 mm
05:00 PM 67.6°F19.8°C 51.8°F11.0°C 57% Calm Calm -- 29.99 in1015.6 mb - 0.00 in0.0 mm 0.29 in7.4 mm
04:45 PM 67.7°F19.8°C 52.9°F11.6°C 59% Calm Calm -- 29.98 in1015.2 mb - 0.00 in0.0 mm 0.29 in7.4 mm
04:31 PM 68.3°F20.2°C 50.0°F10.0°C 52% Calm Calm -- 29.98 in1015.2 mb - 0.00 in0.0 mm 0.29 in7.4 mm
04:15 PM 70.5°F21.4°C 50.4°F10.2°C 49% Calm Calm 1.0 mph1.6 kmh 29.98 in1015.2 mb - 0.00 in0.0 mm 0.29 in7.4 mm
04:00 PM 71.0°F21.7°C 55.0°F12.8°C 57% Calm Calm 1.0 mph1.6 kmh 29.98 in1015.2 mb - 0.00 in0.0 mm 0.29 in7.4 mm
03:45 PM 71.3°F21.8°C 55.8°F13.2°C 58% Calm Calm -- 29.98 in1015.2 mb - 0.00 in0.0 mm 0.29 in7.4 mm
03:30 PM 70.9°F21.6°C 55.3°F12.9°C 58% Calm Calm -- 29.98 in1015.2 mb - 0.00 in0.0 mm 0.29 in7.4 mm
03:16 PM 71.1°F21.7°C 54.6°F12.6°C 56% Calm Calm -- 29.98 in1015.2 mb - 0.00 in0.0 mm 0.29 in7.4 mm
03:01 PM 71.0°F21.7°C 55.0°F12.8°C 57% 0.1 mph ENE0.2 kmh ENE 1.0 mph1.6 kmh 29.98 in1015.2 mb - 0.00 in0.0 mm 0.29 in7.4 mm
02:45 PM 70.7°F21.5°C 53.7°F12.1°C 55% Calm Calm -- 29.98 in1015.2 mb - 0.00 in0.0 mm 0.29 in7.4 mm
02:31 PM 70.7°F21.5°C 52.2°F11.2°C 52% Calm Calm 1.0 mph1.6 kmh 29.98 in1015.2 mb - 0.00 in0.0 mm 0.29 in7.4 mm
02:15 PM 71.0°F21.7°C 56.4°F13.6°C 60% 0.1 mph S0.2 kmh S 1.0 mph1.6 kmh 29.98 in1015.2 mb - 0.00 in0.0 mm 0.29 in7.4 mm
02:01 PM 70.8°F21.6°C 54.3°F12.4°C 56% Calm Calm -- 29.98 in1015.2 mb - 0.00 in0.0 mm 0.29 in7.4 mm
01:46 PM 70.9°F21.6°C 53.4°F11.9°C 54% Calm Calm 1.0 mph1.6 kmh 29.98 in1015.2 mb - 0.00 in0.0 mm 0.29 in7.4 mm
01:30 PM 68.6°F20.3°C 53.2°F11.8°C 58% 0.1 mph NE0.2 kmh NE 3.0 mph4.8 kmh 29.98 in1015.2 mb - 0.00 in0.0 mm 0.29 in7.4 mm
01:15 PM 70.5°F21.4°C 53.1°F11.7°C 54% Calm Calm 1.0 mph1.6 kmh 29.98 in1015.2 mb - 0.00 in0.0 mm 0.29 in7.4 mm
01:01 PM 70.4°F21.3°C 57.2°F14.0°C 63% 0.1 mph SE0.2 kmh SE 1.0 mph1.6 kmh 29.98 in1015.2 mb - 0.00 in0.0 mm 0.29 in7.4 mm
12:46 PM 71.2°F21.8°C 56.6°F13.7°C 60% 0.3 mph SE0.5 kmh SE 4.0 mph6.4 kmh 29.98 in1015.2 mb - 0.00 in0.0 mm 0.29 in7.4 mm
12:31 PM 70.0°F21.1°C 57.6°F14.2°C 65% Calm Calm 1.0 mph1.6 kmh 29.98 in1015.2 mb - 0.00 in0.0 mm 0.29 in7.4 mm
12:16 PM 70.7°F21.5°C 56.6°F13.7°C 61% Calm Calm 1.0 mph1.6 kmh 29.98 in1015.2 mb - 0.00 in0.0 mm 0.29 in7.4 mm
12:00 PM 70.5°F21.4°C 56.9°F13.8°C 62% Calm Calm 1.0 mph1.6 kmh 29.99 in1015.6 mb - 0.00 in0.0 mm 0.29 in7.4 mm
11:45 AM 69.9°F21.1°C 58.5°F14.7°C 67% Calm Calm -- 29.98 in1015.2 mb - 0.00 in0.0 mm 0.29 in7.4 mm
11:31 AM 69.2°F20.7°C 56.0°F13.3°C 63% Calm Calm 1.0 mph1.6 kmh 29.99 in1015.6 mb - 0.00 in0.0 mm 0.29 in7.4 mm
11:16 AM 69.2°F20.7°C 56.5°F13.6°C 64% Calm Calm 1.0 mph1.6 kmh 29.99 in1015.6 mb - 0.00 in0.0 mm 0.29 in7.4 mm
11:00 AM 68.4°F20.2°C 54.9°F12.7°C 62% 1.3 mph SSW2.1 kmh SSW 4.0 mph6.4 kmh 29.99 in1015.6 mb - 0.00 in0.0 mm 0.29 in7.4 mm
10:45 AM 67.9°F19.9°C 57.0°F13.9°C 68% Calm Calm -- 29.99 in1015.6 mb - 0.00 in0.0 mm 0.29 in7.4 mm
10:31 AM 67.3°F19.6°C 57.5°F14.2°C 71% Calm Calm -- 29.99 in1015.6 mb - 0.00 in0.0 mm 0.29 in7.4 mm
10:15 AM 66.6°F19.2°C 60.2°F15.7°C 80% 0.1 mph NNW0.2 kmh NNW -- 29.99 in1015.6 mb - 0.00 in0.0 mm 0.29 in7.4 mm
10:00 AM 66.0°F18.9°C 61.0°F16.1°C 84% Calm Calm 1.0 mph1.6 kmh 29.99 in1015.6 mb - 0.00 in0.0 mm 0.29 in7.4 mm
09:45 AM 65.0°F18.3°C 60.4°F15.8°C 85% Calm Calm -- 29.99 in1015.6 mb - 0.00 in0.0 mm 0.29 in7.4 mm
09:30 AM 63.7°F17.6°C 58.1°F14.5°C 82% Calm Calm -- 29.99 in1015.6 mb - 0.01 in0.3 mm 0.29 in7.4 mm
09:15 AM 62.5°F16.9°C 58.6°F14.8°C 87% Calm Calm -- 29.98 in1015.2 mb - 0.00 in0.0 mm 0.28 in7.1 mm
09:01 AM 60.6°F15.9°C 58.8°F14.9°C 94% Calm Calm -- 29.98 in1015.2 mb - 0.00 in0.0 mm 0.28 in7.1 mm
08:45 AM 60.0°F15.6°C 57.7°F14.3°C 92% Calm Calm -- 29.98 in1015.2 mb - 0.00 in0.0 mm 0.28 in7.1 mm
08:30 AM 60.3°F15.7°C 57.7°F14.3°C 91% Calm Calm -- 29.98 in1015.2 mb - 0.00 in0.0 mm 0.28 in7.1 mm
08:15 AM 60.3°F15.7°C 58.3°F14.6°C 93% Calm Calm -- 29.98 in1015.2 mb - 0.00 in0.0 mm 0.28 in7.1 mm
08:00 AM 59.6°F15.3°C 58.2°F14.6°C 95% Calm Calm 1.0 mph1.6 kmh 29.97 in1014.9 mb - 0.01 in0.3 mm 0.28 in7.1 mm
07:45 AM 59.1°F15.1°C 57.4°F14.1°C 94% Calm Calm -- 29.98 in1015.2 mb - 0.00 in0.0 mm 0.28 in7.1 mm
03:00 AM 57.8°F14.3°C 57.5°F14.2°C 99% Calm Calm -- 29.93 in1013.5 mb - 0.01 in0.3 mm 0.17 in4.3 mm
02:45 AM 57.9°F14.4°C 57.3°F14.1°C 98% Calm Calm -- 29.93 in1013.5 mb - 0.01 in0.3 mm 0.17 in4.3 mm
02:30 AM 57.8°F14.3°C 57.2°F14.0°C 98% Calm Calm -- 29.93 in1013.5 mb - 0.01 in0.3 mm 0.16 in4.1 mm
02:15 AM 57.9°F14.4°C 57.3°F14.1°C 98% Calm Calm -- 29.93 in1013.5 mb - 0.03 in0.8 mm 0.15 in3.8 mm
02:00 AM 58.4°F14.7°C 57.8°F14.3°C 98% Calm Calm -- 29.93 in1013.5 mb - 0.05 in1.3 mm 0.12 in3.0 mm
01:45 AM 58.5°F14.7°C 57.7°F14.3°C 97% Calm Calm -- 29.93 in1013.5 mb - 0.03 in0.8 mm 0.07 in1.8 mm
01:30 AM 59.0°F15.0°C 57.8°F14.3°C 96% Calm Calm -- 29.93 in1013.5 mb - 0.03 in0.8 mm 0.04 in1.0 mm
01:15 AM 59.3°F15.2°C 57.6°F14.2°C 94% Calm Calm -- 29.93 in1013.5 mb - 0.01 in0.3 mm 0.01 in0.3 mm
01:00 AM 59.7°F15.4°C 57.7°F14.3°C 93% Calm Calm -- 29.93 in1013.5 mb - 0.00 in0.0 mm 0.00 in0.0 mm
12:45 AM 59.9°F15.5°C 57.6°F14.2°C 92% Calm Calm -- 29.93 in1013.5 mb - 0.00 in0.0 mm 0.00 in0.0 mm
12:30 AM 60.1°F15.6°C 57.8°F14.3°C 92% Calm Calm -- 29.92 in1013.2 mb - 0.00 in0.0 mm 0.00 in0.0 mm
12:15 AM 60.2°F15.7°C 57.9°F14.4°C 92% 0.1 mph NW0.2 kmh NW 2.0 mph3.2 kmh 29.91 in1012.9 mb - 0.00 in0.0 mm 0.00 in0.0 mm
12:00 AM 60.6°F15.9°C 58.5°F14.7°C 93% 0.1 mph NW0.2 kmh NW 1.0 mph1.6 kmh 29.91 in1012.9 mb - 0.00 in0.0 mm 0.00 in0.0 mm